Terminal Aerodrome Forecast
Issued by NWS

Home | Current Version | Previous Version | Text Only | Print | Product List | Glossary On
Versions: 1 2 3 4 5 6 7 8 9 10 11 12 13 14
519
FTUS43 KGRB 271740
TAFAUW
TAF
KAUW 271740Z 2718/2818 13006KT P6SM VCSH SCT050 OVC100
     FM272100 34006KT P6SM -SHRA VCTS BKN040CB
     FM280300 07004KT P6SM -SHRA BKN025 OVC040
     FM280600 09006KT 5SM -SHRA BR BKN020
     FM280900 09005KT 3SM BR BKN010 OVC018
     FM281400 05007KT P6SM VCSH BKN030=

USA.gov is the U.S. government's official web portal to all federal, state and local government web resources and services.